Time;durP1;ratioP1;P1;durP2;ratioP2;P2;SDS_P1;SDS_P2;PMS_P1;PMS_P2;Temp;Humidity;BMP_temperature;BMP_pressure;BME280_temperature;BME280_humidity;BME280_pressure;Samples;Min_cycle;Max_cycle;Signal;HPM_P1;HPM_P2
2022/10/26 00:05:05;;;;;;;6.72;2.60;;;9.80;99.90;;;-144.05;79.82;125687.94;5019317;28;20034;-90
2022/10/26 00:07:34;;;;;;;5.32;2.53;;;9.80;99.90;;;-144.05;79.88;125687.94;5004609;28;20044;-83
2022/10/26 00:10:02;;;;;;;4.40;2.70;;;9.80;99.90;;;-144.05;80.09;125687.94;5019351;28;20017;-82
2022/10/26 00:12:43;;;;;;;6.85;2.72;;;9.60;99.90;;;-144.05;80.39;125687.94;5001198;28;20412;-86
2022/10/26 00:15:11;;;;;;;8.60;2.92;;;9.60;99.90;;;-144.05;80.73;125687.94;4994661;28;20036;-86
2022/10/26 00:17:40;;;;;;;7.18;3.67;;;9.70;99.90;;;-144.05;80.33;125687.94;4994591;28;20126;-87
2022/10/26 00:20:12;;;;;;;6.18;3.15;;;9.70;99.90;;;-144.05;80.38;125687.94;4994891;28;20036;-88
2022/10/26 00:22:45;;;;;;;6.85;3.05;;;9.50;99.90;;;-144.05;80.74;125687.94;4994608;28;20084;-86
2022/10/26 00:25:13;;;;;;;5.90;2.88;;;9.50;99.90;;;-144.05;80.60;125687.94;4994686;28;20061;-86
2022/10/26 00:27:42;;;;;;;7.70;2.92;;;9.40;99.90;;;-144.05;80.59;125687.94;4994678;28;20021;-86
2022/10/26 00:30:09;;;;;;;6.13;3.15;;;9.40;99.90;;;-144.05;80.66;125687.94;4994816;28;20034;-87
2022/10/26 00:32:35;;;;;;;10.65;3.47;;;9.40;99.90;;;-144.05;80.86;125687.94;4994877;28;20033;-87
2022/10/26 00:35:03;;;;;;;4.38;2.60;;;9.40;99.90;;;-144.05;80.77;125687.94;4994498;28;20038;-87
2022/10/26 00:37:31;;;;;;;4.45;3.22;;;9.40;99.90;;;-144.05;81.06;125687.94;4994522;28;20022;-85
2022/10/26 00:39:59;;;;;;;6.60;3.00;;;9.40;99.90;;;-144.05;80.94;125687.94;4994656;28;20372;-86
2022/10/26 00:42:28;;;;;;;8.02;3.33;;;9.50;99.90;;;-144.05;81.25;125687.94;4994927;28;20040;-86
2022/10/26 00:45:00;;;;;;;8.75;3.33;;;9.50;99.90;;;-144.05;81.50;125687.94;4995987;28;20133;-86
2022/10/26 00:47:52;;;;;;;13.43;3.30;;;9.60;99.90;;;-144.05;81.89;125687.94;4995695;28;20034;-86
2022/10/26 00:50:32;;;;;;;5.85;3.30;;;9.70;99.90;;;-144.05;81.54;125687.94;5011072;28;20040;-86
2022/10/26 00:53:06;;;;;;;8.15;3.13;;;9.70;99.90;;;-144.05;81.47;125687.94;4994638;28;20218;-84
2022/10/26 00:55:43;;;;;;;11.48;3.10;;;9.80;99.90;;;-144.05;81.80;125687.94;5011344;28;20052;-87
2022/10/26 00:58:18;;;;;;;11.90;3.28;;;9.70;99.90;;;-144.05;81.85;125687.94;4995230;28;20482;-89
2022/10/26 01:00:44;;;;;;;7.78;3.33;;;9.70;99.90;;;-144.05;81.75;125687.94;4995403;28;20459;-86
2022/10/26 01:03:11;;;;;;;5.82;3.55;;;9.70;99.90;;;-144.05;81.63;125687.94;4994271;28;20038;-87
2022/10/26 01:05:48;;;;;;;7.05;3.63;;;9.60;99.90;;;-144.05;81.74;125687.94;4994543;28;20029;-85
2022/10/26 01:08:17;;;;;;;10.18;3.28;;;9.60;99.90;;;-144.05;81.63;125687.94;4994884;28;20326;-86
2022/10/26 01:10:44;;;;;;;5.22;3.10;;;9.50;99.90;;;-144.05;81.84;125687.94;4994329;28;20112;-85
2022/10/26 01:13:16;;;;;;;9.57;3.50;;;9.60;99.90;;;-144.05;81.85;125687.94;4994493;28;20033;-87
2022/10/26 01:16:15;;;;;;;8.68;2.97;;;9.50;99.90;;;-144.05;81.76;125687.94;4995060;28;20334;-88
2022/10/26 01:19:25;;;;;;;8.55;3.50;;;9.50;99.90;;;-144.05;81.63;125687.94;4994329;28;20022;-86
2022/10/26 01:22:24;;;;;;;7.07;3.10;;;9.60;99.90;;;-144.05;81.81;125687.94;4998276;28;20034;-86
2022/10/26 01:25:08;;;;;;;6.53;3.55;;;9.50;99.90;;;-144.05;81.70;125687.94;4997915;28;20452;-88
2022/10/26 01:27:44;;;;;;;7.57;3.70;;;9.50;99.90;;;-144.05;81.92;125687.94;4998164;28;20033;-87
2022/10/26 01:30:30;;;;;;;;;;;9.60;99.90;;;-144.05;81.96;125687.94;4998366;28;20428;-86
2022/10/26 01:34:01;;;;;;;7.60;2.92;;;9.60;99.90;;;-144.05;81.63;125687.94;4997763;28;19964;-87
2022/10/26 01:36:41;;;;;;;7.40;3.17;;;9.60;99.90;;;-144.05;82.20;125687.94;4980002;28;20038;-85
2022/10/26 01:39:36;;;;;;;8.18;3.20;;;9.80;99.90;;;-144.05;82.02;125687.94;4997831;28;20125;-85
2022/10/26 01:42:12;;;;;;;6.03;2.83;;;9.70;99.90;;;-144.05;81.97;125687.94;4997545;28;20034;-87
2022/10/26 01:45:06;;;;;;;5.80;2.67;;;9.70;99.90;;;-144.05;82.17;125687.94;4998912;28;20033;-86
2022/10/26 01:47:39;;;;;;;9.07;3.58;;;9.70;99.90;;;-144.05;82.17;125687.94;4998372;28;20030;-87
2022/10/26 01:50:08;;;;;;;6.35;3.70;;;9.70;99.90;;;-144.05;82.45;125687.94;4998494;28;20092;-89
2022/10/26 01:52:36;;;;;;;7.95;3.72;;;9.80;99.90;;;-144.05;82.52;125687.94;4998374;28;20034;-88
2022/10/26 01:55:37;;;;;;;7.78;3.83;;;9.80;99.90;;;-144.05;82.31;125687.94;4998359;28;20029;-87
2022/10/26 01:59:10;;;;;;;4.90;3.10;;;9.80;99.90;;;-144.05;82.45;125687.94;4999341;28;20056;-88
2022/10/26 02:01:47;;;;;;;4.82;2.75;;;9.80;99.90;;;-144.05;82.13;125687.94;4999342;28;20033;-87
2022/10/26 02:04:54;;;;;;;5.10;2.95;;;9.70;99.90;;;-144.05;82.55;125687.94;4999958;28;20405;-88
2022/10/26 02:08:10;;;;;;;9.45;2.85;;;9.70;99.90;;;-144.05;82.56;125687.94;5000694;28;20055;-85
2022/10/26 02:11:27;;;;;;;8.25;3.00;;;9.80;99.90;;;-144.05;82.52;125687.94;5001441;28;20034;-88
2022/10/26 02:14:07;;;;;;;6.65;2.97;;;9.80;99.90;;;-144.05;82.43;125687.94;5001591;28;20038;-86
2022/10/26 02:17:02;;;;;;;5.55;2.92;;;9.80;99.90;;;-144.05;82.69;125687.94;5012420;28;20010;-83
2022/10/26 02:19:50;;;;;;;4.82;2.50;;;9.90;99.90;;;-144.05;82.51;125687.94;4999955;28;20486;-86
2022/10/26 02:22:34;;;;;;;5.88;2.67;;;9.90;99.90;;;-144.05;82.69;125687.94;4996941;28;20417;-85
2022/10/26 02:25:17;;;;;;;7.30;2.60;;;9.90;99.90;;;-144.05;82.75;125687.94;4996457;28;20057;-85
2022/10/26 02:28:02;;;;;;;9.63;3.25;;;9.90;99.90;;;-144.05;82.85;125687.94;4997179;28;20053;-91
2022/10/26 02:30:32;;;;;;;4.47;3.08;;;10.00;99.90;;;-144.05;82.94;125687.94;4996927;28;20030;-86
2022/10/26 02:33:04;;;;;;;8.23;3.33;;;10.00;99.90;;;-144.05;83.01;125687.94;4995892;28;20037;-86
2022/10/26 02:35:43;;;;;;;8.13;2.80;;;10.00;99.90;;;-144.05;82.79;125687.94;4996023;28;20482;-86
2022/10/26 02:38:18;;;;;;;5.55;2.63;;;10.10;99.90;;;-144.05;83.04;125687.94;4996085;28;20057;-84
2022/10/26 02:40:52;;;;;;;5.50;2.67;;;10.00;99.90;;;-144.05;82.93;125687.94;4996168;28;20084;-87
2022/10/26 02:43:29;;;;;;;7.22;3.95;;;10.00;99.90;;;-144.05;82.88;125687.94;4996065;28;20037;-89
2022/10/26 02:46:17;;;;;;;11.15;3.50;;;10.10;99.90;;;-144.05;82.93;125687.94;4996848;28;20494;-85
2022/10/26 02:48:49;;;;;;;4.55;2.42;;;10.10;99.90;;;-144.05;82.88;125687.94;4997037;28;20116;-87
2022/10/26 02:52:05;;;;;;;4.10;2.40;;;10.00;99.90;;;-144.05;83.01;125687.94;4996733;28;20188;-87
2022/10/26 02:54:56;;;;;;;6.20;3.03;;;10.00;99.90;;;-144.05;82.91;125687.94;4996298;28;20057;-87
2022/10/26 02:57:46;;;;;;;5.78;3.25;;;10.00;99.90;;;-144.05;82.97;125687.94;5014152;28;20036;-87
2022/10/26 03:00:18;;;;;;;4.75;2.90;;;10.10;99.90;;;-144.05;83.07;125687.94;5012494;28;20034;-88
2022/10/26 03:02:57;;;;;;;4.32;2.65;;;10.00;99.90;;;-144.05;83.21;125687.94;4996676;28;20040;-87
2022/10/26 03:05:43;;;;;;;9.23;3.95;;;10.10;99.90;;;-144.05;83.17;125687.94;4996714;28;20484;-87
2022/10/26 03:08:36;;;;;;;;;;;10.00;99.90;;;-144.05;82.93;125687.94;4996690;28;20084;-87
2022/10/26 03:11:22;;;;;;;4.63;2.90;;;10.10;99.90;;;-144.05;83.34;125687.94;4996370;28;19920;-85
2022/10/26 03:13:58;;;;;;;7.45;3.42;;;10.10;99.90;;;-144.05;83.27;125687.94;4996499;28;20036;-87
2022/10/26 03:16:33;;;;;;;6.85;3.30;;;10.20;99.90;;;-144.05;83.22;125687.94;4996195;28;20037;-85
2022/10/26 03:18:59;;;;;;;9.38;4.22;;;10.20;99.90;;;-144.05;83.30;125687.94;4996449;28;20029;-87
2022/10/26 03:21:25;;;;;;;7.28;3.22;;;10.30;99.90;;;-144.05;83.34;125687.94;4996266;28;20402;-88
2022/10/26 03:23:53;;;;;;;7.57;3.17;;;10.30;99.90;;;-144.05;83.11;125687.94;5013137;28;20520;-87
2022/10/26 03:26:24;;;;;;;9.50;3.30;;;10.30;99.90;;;-144.05;83.21;125687.94;4996735;28;20034;-86
2022/10/26 03:29:04;;;;;;;7.50;2.80;;;10.40;99.90;;;-144.05;83.13;125687.94;4996234;28;20041;-89
2022/10/26 03:31:32;;;;;;;8.07;3.20;;;10.40;99.90;;;-144.05;83.27;125687.94;4996215;28;20109;-85
2022/10/26 03:34:31;;;;;;;;;;;;;;;;;;;;;
2022/10/26 03:37:00;;;;;;;6.03;2.40;;;10.40;99.90;;;-144.05;83.20;125687.94;5014662;28;20109;-88
2022/10/26 03:39:29;;;;;;;7.45;3.50;;;10.50;99.90;;;-144.05;82.87;125687.94;4996169;28;20033;-87
2022/10/26 03:41:55;;;;;;;5.38;3.45;;;10.50;99.90;;;-144.05;82.95;125687.94;4996304;28;20459;-84
2022/10/26 03:44:24;;;;;;;8.75;3.85;;;10.50;99.90;;;-144.05;83.07;125687.94;4996155;28;20033;-85
2022/10/26 03:46:52;;;;;;;9.00;4.15;;;10.60;99.90;;;-144.05;83.24;125687.94;4996203;28;20040;-88
2022/10/26 03:49:33;;;;;;;7.68;3.88;;;10.60;99.90;;;-144.05;83.01;125687.94;4996090;28;20069;-87
2022/10/26 03:52:05;;;;;;;6.05;3.00;;;10.70;99.90;;;-144.05;82.97;125687.94;4996881;28;20117;-87
2022/10/26 03:54:31;;;;;;;11.63;4.90;;;10.60;99.90;;;-144.05;83.05;125687.94;5014053;28;20133;-87
2022/10/26 03:57:17;;;;;;;14.57;4.93;;;10.60;99.90;;;-144.05;83.29;125687.94;4996621;28;20026;-85
2022/10/26 03:59:45;;;;;;;14.63;4.30;;;10.60;99.90;;;-144.05;83.34;125687.94;4995963;28;20474;-87
2022/10/26 04:02:22;;;;;;;12.48;4.82;;;10.60;99.90;;;-144.05;83.27;125687.94;4996902;28;20121;-89
2022/10/26 04:04:48;;;;;;;10.70;4.20;;;10.70;99.90;;;-144.05;83.28;125687.94;5014568;28;20410;-89
2022/10/26 04:07:14;;;;;;;8.30;4.38;;;10.70;99.90;;;-144.05;83.21;125687.94;5014195;28;20029;-88
2022/10/26 04:09:45;;;;;;;10.88;3.90;;;10.80;99.90;;;-144.05;83.14;125687.94;4998145;28;20390;-90
2022/10/26 04:12:40;;;;;;;10.20;4.85;;;10.80;99.90;;;-144.05;83.16;125687.94;4996854;28;20505;-89
2022/10/26 04:15:29;;;;;;;9.45;3.55;;;10.70;99.90;;;-144.05;83.04;125687.94;4998792;28;20029;-86
2022/10/26 04:18:20;;;;;;;11.80;3.92;;;10.70;99.90;;;-144.05;83.25;125687.94;4997733;28;20030;-86
2022/10/26 04:21:39;;;;;;;9.70;4.32;;;10.80;99.90;;;-144.05;83.46;125687.94;4997964;28;20033;-87
2022/10/26 04:24:15;;;;;;;7.03;3.17;;;10.80;99.90;;;-144.05;83.41;125687.94;5015963;28;20034;-89
2022/10/26 04:26:46;;;;;;;;;;;10.80;99.90;;;-144.05;83.68;125687.94;5017831;28;20685;-84
2022/10/26 04:29:48;;;;;;;8.25;3.15;;;10.90;99.90;;;-144.05;83.88;125687.94;5031179;28;19917;-87
2022/10/26 04:32:33;;;;;;;5.45;2.67;;;11.00;99.90;;;-144.05;83.97;125687.94;5018981;28;20412;-87
2022/10/26 04:35:14;;;;;;;9.88;2.50;;;11.10;99.90;;;-144.05;83.86;125687.94;5000287;28;20125;-88
2022/10/26 04:37:42;;;;;;;6.65;2.85;;;11.30;99.90;;;-144.05;83.35;125687.94;4995974;28;20057;-87
2022/10/26 04:40:12;;;;;;;3.78;2.00;;;11.60;99.90;;;-144.05;83.09;125687.94;4995906;28;20061;-85
2022/10/26 04:42:49;;;;;;;4.95;2.13;;;11.80;99.90;;;-144.05;81.74;125687.94;4995611;28;20060;-84
2022/10/26 04:45:16;;;;;;;6.50;1.98;;;12.00;99.90;;;-144.05;81.19;125687.94;4996224;28;20092;-87
2022/10/26 04:48:23;;;;;;;7.15;1.85;;;12.10;99.90;;;-144.05;79.45;125687.94;5013733;28;20104;-87
2022/10/26 04:51:05;;;;;;;6.38;1.83;;;12.30;99.90;;;-144.05;78.42;125687.94;4996581;28;20072;-86
2022/10/26 04:53:32;;;;;;;5.25;1.70;;;12.50;99.90;;;-144.05;77.23;125687.94;4996339;28;20057;-86
2022/10/26 04:56:38;;;;;;;7.00;1.48;;;12.60;99.90;;;-144.05;76.74;125687.94;4999463;28;20030;-87
2022/10/26 04:59:16;;;;;;;4.20;2.00;;;12.60;99.90;;;-144.05;76.50;125687.94;5000277;28;20029;-89
2022/10/26 05:02:02;;;;;;;4.57;2.10;;;12.70;99.90;;;-144.05;76.10;125687.94;4999997;28;20418;-88
2022/10/26 05:04:50;;;;;;;5.15;1.75;;;12.80;99.90;;;-144.05;75.64;125687.94;5000100;28;20474;-91
2022/10/26 05:07:19;;;;;;;5.43;1.45;;;13.00;99.90;;;-144.05;74.94;125687.94;5000757;28;20044;-87
2022/10/26 05:10:11;;;;;;;7.90;2.15;;;13.10;99.90;;;-144.05;74.39;125687.94;4998922;28;20041;-87
2022/10/26 05:13:20;;;;;;;4.55;1.23;;;13.20;99.90;;;-144.05;73.86;125687.94;4999662;28;20049;-85
2022/10/26 05:16:37;;;;;;;;;;;;;;;;;;;;;
2022/10/26 05:19:03;;;;;;;9.90;1.67;;;13.40;99.90;;;-144.05;72.53;125687.94;5015941;28;20030;-87
2022/10/26 05:21:34;;;;;;;8.05;1.42;;;13.50;99.90;;;-144.05;72.27;125687.94;4999183;28;20058;-87
2022/10/26 05:24:00;;;;;;;2.55;1.17;;;13.50;99.90;;;-144.05;71.93;125687.94;4999005;28;20056;-88
2022/10/26 05:26:27;;;;;;;7.45;1.20;;;13.60;99.90;;;-144.05;71.94;125687.94;4998447;28;20029;-88
2022/10/26 05:28:56;;;;;;;3.15;1.48;;;13.60;99.90;;;-144.05;71.88;125687.94;4998202;28;20026;-90
2022/10/26 05:31:22;;;;;;;8.15;2.00;;;13.60;99.90;;;-144.05;71.87;125687.94;4998671;28;20033;-82
2022/10/26 05:33:49;;;;;;;5.05;1.40;;;13.60;99.90;;;-144.05;71.84;125687.94;4964927;28;1405067;-83
2022/10/26 05:36:29;;;;;;;7.05;1.38;;;13.60;99.90;;;-144.05;71.57;125687.94;5015653;28;20051;-85
2022/10/26 05:39:03;;;;;;;3.65;1.10;;;13.60;99.90;;;-144.05;71.57;125687.94;4999578;28;20030;-85
2022/10/26 05:41:32;;;;;;;4.40;1.00;;;13.60;99.90;;;-144.05;71.44;125687.94;4999473;28;20508;-85
2022/10/26 05:43:58;;;;;;;3.67;1.08;;;13.70;99.90;;;-144.05;71.40;125687.94;4998745;28;20042;-84
2022/10/26 05:46:24;;;;;;;5.45;1.20;;;13.60;99.90;;;-144.05;71.55;125687.94;4999313;28;20512;-83
2022/10/26 05:48:50;;;;;;;5.22;1.17;;;13.70;99.90;;;-144.05;71.16;125687.94;4998817;28;20038;-85
2022/10/26 05:51:16;;;;;;;1.83;0.95;;;13.70;99.90;;;-144.05;70.78;125687.94;5015524;28;20033;-85
2022/10/26 05:54:19;;;;;;;6.70;1.40;;;13.80;99.90;;;-144.05;70.58;125687.94;4999456;28;20116;-87
2022/10/26 05:57:32;;;;;;;;;;;;;;;;;;;;;
2022/10/26 06:00:27;;;;;;;5.07;1.00;;;13.90;99.90;;;-144.05;69.27;125687.94;5013845;28;20121;-84
2022/10/26 06:03:51;;;;;;;;;;;;;;;;;;;;;
2022/10/26 06:06:18;;;;;;;2.20;0.90;;;14.10;99.90;;;-144.05;68.15;125687.94;5010793;28;20038;-86
2022/10/26 06:08:47;;;;;;;3.75;1.33;;;14.20;99.90;;;-144.05;67.84;125687.94;4999053;28;20125;-87
2022/10/26 06:11:24;;;;;;;2.58;1.23;;;14.20;99.90;;;-144.05;67.51;125687.94;5015075;28;20034;-87
2022/10/26 06:13:53;;;;;;;8.20;1.20;;;14.30;99.90;;;-144.05;67.44;125687.94;4998734;28;20026;-86
2022/10/26 06:16:33;;;;;;;2.30;0.95;;;14.30;99.90;;;-144.05;67.13;125687.94;4998644;28;20053;-85
2022/10/26 06:19:27;;;;;;;6.20;1.25;;;14.30;99.90;;;-144.05;66.49;125687.94;4998990;28;20112;-85
2022/10/26 06:22:48;;;;;;;2.17;0.80;;;14.40;99.90;;;-144.05;66.24;125687.94;5017490;28;20030;-86
2022/10/26 06:25:44;;;;;;;5.32;1.15;;;14.40;99.90;;;-144.05;66.16;125687.94;5000157;28;20056;-88
2022/10/26 06:28:40;;;;;;;2.95;1.10;;;14.40;99.90;;;-144.05;66.29;125687.94;5024024;28;20083;-89
2022/10/26 06:31:07;;;;;;;1.38;0.75;;;14.50;99.90;;;-144.05;65.67;125687.94;5002714;28;20069;-83
2022/10/26 06:33:33;;;;;;;5.13;0.70;;;14.50;99.90;;;-144.05;65.80;125687.94;5021401;28;20037;-79
2022/10/26 06:36:25;;;;;;;3.20;0.77;;;14.50;99.90;;;-144.05;65.80;125687.94;5023334;28;20046;-88
2022/10/26 06:39:08;;;;;;;2.67;0.82;;;14.50;99.90;;;-144.05;65.75;125687.94;4997651;28;20045;-82
2022/10/26 06:41:35;;;;;;;4.32;1.15;;;14.50;99.90;;;-144.05;65.72;125687.94;4998420;28;20706;-84
2022/10/26 06:44:05;;;;;;;4.43;1.20;;;14.50;99.90;;;-144.05;65.56;125687.94;4999030;28;20041;-85
2022/10/26 06:47:06;;;;;;;4.53;1.05;;;14.50;99.90;;;-144.05;65.67;125687.94;4999944;28;20033;-87
2022/10/26 06:49:56;;;;;;;7.05;1.65;;;14.50;99.90;;;-144.05;65.46;125687.94;4997699;28;20445;-84
2022/10/26 06:52:34;;;;;;;4.45;1.45;;;14.50;99.90;;;-144.05;65.73;125687.94;4997527;28;20034;-86
2022/10/26 06:55:02;;;;;;;7.00;1.48;;;14.60;99.90;;;-144.05;65.58;125687.94;5016037;28;20466;-87
2022/10/26 06:57:36;;;;;;;3.38;1.45;;;14.50;99.90;;;-144.05;65.71;125687.94;4998372;28;20080;-85
2022/10/26 07:00:17;;;;;;;3.03;1.30;;;14.50;99.90;;;-144.05;66.03;125687.94;4997364;28;20021;-84
2022/10/26 07:02:43;;;;;;;5.75;1.40;;;14.50;99.90;;;-144.05;65.70;125687.94;4999493;28;20433;-87
2022/10/26 07:05:11;;;;;;;5.13;1.00;;;14.50;99.90;;;-144.05;65.60;125687.94;4998684;28;20065;-88
2022/10/26 07:07:45;;;;;;;3.70;1.60;;;14.50;99.90;;;-144.05;65.39;125687.94;4998887;28;20438;-87
2022/10/26 07:10:13;;;;;;;4.47;1.20;;;14.60;99.90;;;-144.05;65.30;125687.94;4998310;28;20026;-84
2022/10/26 07:12:40;;;;;;;6.55;1.60;;;14.60;99.90;;;-144.05;65.50;125687.94;4997375;28;20037;-86
2022/10/26 07:15:07;;;;;;;7.90;1.55;;;14.60;99.90;;;-144.05;65.29;125687.94;4998211;28;20076;-86
2022/10/26 07:17:46;;;;;;;5.93;1.30;;;14.60;99.90;;;-144.05;64.94;125687.94;4997749;28;20029;-85
2022/10/26 07:20:15;;;;;;;4.50;1.10;;;14.60;99.90;;;-144.05;64.67;125687.94;4999618;28;20113;-87
2022/10/26 07:22:41;;;;;;;2.47;1.15;;;14.70;99.90;;;-144.05;64.60;125687.94;5001694;28;20182;-85
2022/10/26 07:25:09;;;;;;;3.85;0.95;;;14.70;99.90;;;-144.05;64.58;125687.94;5001827;28;20043;-83
2022/10/26 07:27:35;;;;;;;4.07;1.10;;;14.70;99.90;;;-144.05;64.27;125687.94;4997902;28;20026;-87
2022/10/26 07:30:01;;;;;;;4.63;1.00;;;14.70;99.90;;;-144.05;63.89;125687.94;5000873;28;20303;-88
2022/10/26 07:32:27;;;;;;;1.65;1.00;;;14.80;99.90;;;-144.05;64.06;125687.94;4998862;28;20124;-85
2022/10/26 07:34:53;;;;;;;4.15;1.27;;;14.80;99.90;;;-144.05;64.06;125687.94;4998305;28;20053;-83
2022/10/26 07:37:19;;;;;;;2.88;1.13;;;14.90;99.90;;;-144.05;63.56;125687.94;4997724;28;20072;-85
2022/10/26 07:39:45;;;;;;;4.07;1.13;;;14.90;99.90;;;-144.05;63.58;125687.94;5016788;28;20053;-89
2022/10/26 07:42:10;;;;;;;4.13;1.17;;;15.00;99.90;;;-144.05;63.45;125687.94;5015948;28;20048;-89
2022/10/26 07:44:41;;;;;;;3.83;1.10;;;15.10;99.90;;;-144.05;63.09;125687.94;4997630;28;20034;-86
2022/10/26 07:51:08;;;;;;;4.55;1.10;;;15.30;99.90;;;-144.05;62.49;125687.94;4987897;28;20036;-84
2022/10/26 07:53:34;;;;;;;3.58;1.20;;;15.30;99.90;;;-144.05;62.16;125687.94;4997463;28;20021;-85
2022/10/26 07:56:00;;;;;;;3.45;1.08;;;15.40;99.90;;;-144.05;61.74;125687.94;4997939;28;20493;-86
2022/10/26 07:58:27;;;;;;;2.72;0.80;;;15.40;99.90;;;-144.05;61.43;125687.94;5014689;28;20037;-85
2022/10/26 08:00:56;;;;;;;2.15;1.10;;;15.50;99.90;;;-144.05;61.31;125687.94;4997316;28;20026;-85
2022/10/26 08:03:23;;;;;;;4.45;1.17;;;15.60;99.90;;;-144.05;60.73;125687.94;4997346;28;20057;-86
2022/10/26 08:05:52;;;;;;;3.40;1.20;;;15.70;99.90;;;-144.05;60.88;125687.94;5013714;28;20045;-85
2022/10/26 08:08:19;;;;;;;3.15;0.98;;;15.70;99.90;;;-144.05;60.43;125687.94;5014779;28;20025;-85
2022/10/26 08:10:46;;;;;;;4.63;0.90;;;15.70;99.90;;;-144.05;60.29;125687.94;4997255;28;20036;-85
2022/10/26 08:13:14;;;;;;;4.82;1.38;;;15.80;99.90;;;-144.05;60.16;125687.94;5014844;28;20121;-85
2022/10/26 08:15:40;;;;;;;2.72;0.88;;;15.80;99.90;;;-144.05;59.53;125687.94;4997359;28;20049;-87
2022/10/26 08:18:06;;;;;;;2.75;1.20;;;15.90;99.90;;;-144.05;59.43;125687.94;4996941;28;20026;-86
2022/10/26 08:20:32;;;;;;;2.30;0.90;;;16.00;99.90;;;-144.05;58.88;125687.94;4997180;28;20018;-83
2022/10/26 08:23:00;;;;;;;3.60;0.80;;;16.10;99.90;;;-144.05;58.44;125687.94;5014755;28;20032;-83
2022/10/26 08:25:26;;;;;;;4.47;0.95;;;16.20;99.90;;;-144.05;57.58;125687.94;4997089;28;20022;-84
2022/10/26 08:27:53;;;;;;;4.72;0.90;;;16.50;99.90;;;-144.05;57.05;125687.94;4997044;28;20026;-85
2022/10/26 08:30:19;;;;;;;9.50;1.17;;;17.00;99.90;;;-144.05;55.75;125687.94;5015435;28;20033;-85
2022/10/26 08:32:45;;;;;;;5.22;0.90;;;17.40;99.90;;;-144.05;54.90;125687.94;5006616;28;20081;-79
2022/10/26 08:35:11;;;;;;;4.63;1.00;;;17.80;99.90;;;-144.05;54.20;125687.94;5016348;28;20057;-84
2022/10/26 08:37:36;;;;;;;2.55;1.05;;;18.10;99.90;;;-144.05;54.52;125687.94;4997708;28;20065;-83
2022/10/26 08:40:04;;;;;;;2.03;1.00;;;18.30;99.90;;;-144.05;53.86;125687.94;5013374;28;20092;-85
2022/10/26 08:42:47;;;;;;;2.40;0.73;;;18.40;99.90;;;-144.05;53.58;125687.94;5013297;28;20529;-85
2022/10/26 08:45:33;;;;;;;4.70;0.98;;;18.50;99.90;;;-144.05;53.80;125687.94;4997141;28;20030;-85
2022/10/26 08:48:13;;;;;;;2.60;1.05;;;18.10;99.90;;;-144.05;54.55;125687.94;4996176;28;20116;-85
2022/10/26 08:51:06;;;;;;;5.10;1.42;;;17.80;99.90;;;-144.05;55.36;125687.94;4996498;28;20537;-83
2022/10/26 08:54:13;;;;;;;4.53;1.17;;;17.50;99.90;;;-144.05;56.91;125687.94;4996301;28;20048;-86
2022/10/26 08:56:56;;;;;;;3.53;0.95;;;17.20;99.90;;;-144.05;57.46;125687.94;5012677;28;20033;-84
2022/10/26 08:59:54;;;;;;;3.00;1.10;;;17.10;99.90;;;-144.05;55.63;125687.94;4997456;28;20129;-84
2022/10/26 09:02:23;;;;;;;5.20;1.20;;;17.50;99.90;;;-144.05;55.64;125687.94;4996983;28;20486;-84
2022/10/26 09:04:53;;;;;;;4.95;1.30;;;17.90;99.90;;;-144.05;54.74;125687.94;4997117;28;20045;-87
2022/10/26 09:07:46;;;;;;;4.90;1.35;;;18.30;99.90;;;-144.05;54.86;125687.94;4997000;28;20034;-85
2022/10/26 09:10:28;;;;;;;5.88;1.35;;;18.50;99.90;;;-144.05;54.28;125687.94;4997087;28;20030;-84
2022/10/26 09:13:13;;;;;;;4.18;1.13;;;18.80;99.90;;;-144.05;54.12;125687.94;5014558;28;20117;-85
2022/10/26 09:15:45;;;;;;;4.20;0.90;;;18.90;99.90;;;-144.05;53.21;125687.94;4995404;28;20116;-85
2022/10/26 09:19:08;;;;;;;4.45;1.33;;;19.00;99.90;;;-144.05;53.26;125687.94;4995191;28;20025;-85
2022/10/26 09:22:15;;;;;;;2.17;0.90;;;19.10;99.90;;;-144.05;52.80;125687.94;4995658;28;20033;-86
2022/10/26 09:24:59;;;;;;;4.28;1.25;;;18.80;99.90;;;-144.05;54.35;125687.94;4994461;28;20029;-85
2022/10/26 09:27:43;;;;;;;4.57;1.02;;;18.50;99.90;;;-144.05;54.01;125687.94;4995007;28;20030;-84
2022/10/26 09:30:18;;;;;;;3.80;1.10;;;18.60;99.90;;;-144.05;53.15;125687.94;4995220;28;20037;-84
2022/10/26 09:33:01;;;;;;;6.10;0.95;;;18.90;99.90;;;-144.05;52.58;125687.94;4994952;28;20033;-86
2022/10/26 09:35:43;;;;;;;3.10;1.20;;;19.10;99.90;;;-144.05;52.34;125687.94;5012754;28;20038;-85
2022/10/26 09:38:38;;;;;;;3.97;1.17;;;19.20;99.90;;;-144.05;51.77;125687.94;5012473;28;20033;-84
2022/10/26 09:42:16;;;;;;;6.32;1.20;;;19.40;99.90;;;-144.05;51.07;125687.94;5014377;28;20058;-83
2022/10/26 09:44:57;;;;;;;;;;;19.60;99.90;;;-144.05;51.76;125687.94;4975644;28;20080;-86
2022/10/26 09:47:41;;;;;;;5.47;1.52;;;19.90;99.90;;;-144.05;51.19;125687.94;5015527;28;19909;-84
2022/10/26 09:50:39;;;;;;;3.03;1.08;;;20.00;99.90;;;-144.05;50.30;125687.94;4998167;28;20040;-84
2022/10/26 09:53:05;;;;;;;6.28;1.50;;;20.30;99.90;;;-144.05;50.55;125687.94;5003517;28;20042;-85
2022/10/26 09:55:41;;;;;;;7.97;1.50;;;20.30;99.90;;;-144.05;50.87;125687.94;4997523;28;20044;-82
2022/10/26 09:58:20;;;;;;;;;;;20.50;99.90;;;-144.05;49.95;125687.94;5015589;28;20029;-86
2022/10/26 10:00:47;;;;;;;6.50;1.30;;;20.50;99.90;;;-144.05;50.21;125687.94;4998718;28;19909;-87
2022/10/26 10:03:26;;;;;;;4.57;1.10;;;20.50;99.90;;;-144.05;49.95;125687.94;4999061;28;20041;-85
2022/10/26 10:05:52;;;;;;;5.38;1.55;;;20.70;99.90;;;-144.05;49.05;125687.94;4999040;28;20029;-85
2022/10/26 10:08:23;;;;;;;3.83;1.13;;;20.70;99.90;;;-144.05;49.71;125687.94;4998727;28;20040;-85
2022/10/26 10:11:11;;;;;;;2.78;1.20;;;20.50;99.90;;;-144.05;49.35;125687.94;5000598;28;20030;-83
2022/10/26 10:13:43;;;;;;;5.60;1.50;;;20.50;99.90;;;-144.05;51.33;125687.94;5017589;28;20494;-88
2022/10/26 10:16:23;;;;;;;7.03;1.60;;;19.80;99.90;;;-144.05;53.91;125687.94;4999407;28;20041;-86
2022/10/26 10:18:58;;;;;;;3.63;1.42;;;19.10;99.90;;;-144.05;55.67;125687.94;4999520;28;20253;-87
2022/10/26 10:21:44;;;;;;;3.17;1.27;;;18.50;99.90;;;-144.05;55.94;125687.94;4999610;28;20026;-84
2022/10/26 10:24:26;;;;;;;4.32;1.00;;;18.30;99.90;;;-144.05;56.59;125687.94;4997558;28;20029;-85
2022/10/26 10:27:00;;;;;;;4.07;1.63;;;18.30;99.90;;;-144.05;56.59;125687.94;4997958;28;20456;-84
2022/10/26 10:29:41;;;;;;;2.45;0.98;;;18.30;99.90;;;-144.05;56.23;125687.94;5016407;28;20113;-85
2022/10/26 10:32:21;;;;;;;6.57;1.65;;;18.50;99.90;;;-144.05;55.03;125687.94;5024315;28;20014;-79
2022/10/26 10:34:57;;;;;;;6.97;2.13;;;18.90;99.90;;;-144.05;54.61;125687.94;5036979;28;20042;-85
2022/10/26 10:37:41;;;;;;;8.18;1.60;;;19.00;99.90;;;-144.05;55.19;125687.94;4997606;28;20041;-86
2022/10/26 10:40:21;;;;;;;6.55;1.73;;;18.90;99.90;;;-144.05;55.23;125687.94;4996797;28;20113;-82
2022/10/26 10:42:52;;;;;;;2.35;1.38;;;18.80;99.90;;;-144.05;56.12;125687.94;5013284;28;20030;-85
2022/10/26 10:45:27;;;;;;;8.88;1.90;;;18.90;99.90;;;-144.05;55.99;125687.94;4996798;28;20501;-85
2022/10/26 10:48:27;;;;;;;2.90;1.42;;;18.80;99.90;;;-144.05;56.01;125687.94;4997003;28;20108;-88
2022/10/26 10:51:11;;;;;;;6.70;1.38;;;18.90;99.90;;;-144.05;54.41;125687.94;4997550;28;20068;-85
2022/10/26 10:53:56;;;;;;;1.88;1.23;;;19.40;99.90;;;-144.05;52.67;125687.94;4996655;28;20026;-84
2022/10/26 10:56:41;;;;;;;5.88;1.70;;;20.00;99.90;;;-144.05;52.17;125687.94;4997353;28;20026;-85
2022/10/26 10:59:38;;;;;;;6.90;1.38;;;20.50;99.90;;;-144.05;50.88;125687.94;5014913;28;20053;-84
2022/10/26 11:02:52;;;;;;;4.20;1.40;;;20.90;99.90;;;-144.05;50.46;125687.94;4997766;28;20092;-87
2022/10/26 11:06:12;;;;;;;4.97;1.67;;;21.30;99.90;;;-144.05;49.52;125687.94;4997742;28;20493;-85